sensor_id;sensor_type;location;lat;lon;timestamp;pressure;altitude;pressure_sealevel;temperature;humidity
78679;BME280;67994;59.334;13.528;2023-05-07T00:00:00;102300.0;;;4.8;66.5
78679;BME280;67994;59.334;13.528;2023-05-07T00:01:01;102300.0;;;4.8;66.7
78679;BME280;67994;59.334;13.528;2023-05-07T00:02:00;102300.0;;;4.8;66.7
78679;BME280;67994;59.334;13.528;2023-05-07T00:03:00;102300.0;;;4.8;66.7
78679;BME280;67994;59.334;13.528;2023-05-07T00:04:00;102300.0;;;4.9;66.7
78679;BME280;67994;59.334;13.528;2023-05-07T00:05:01;102300.0;;;4.9;66.5
78679;BME280;67994;59.334;13.528;2023-05-07T00:06:00;102300.0;;;4.8;66.9
78679;BME280;67994;59.334;13.528;2023-05-07T00:07:00;102300.0;;;4.8;66.9
78679;BME280;67994;59.334;13.528;2023-05-07T00:08:00;102300.0;;;4.8;66.6
78679;BME280;67994;59.334;13.528;2023-05-07T00:09:00;102300.0;;;4.8;66.9
78679;BME280;67994;59.334;13.528;2023-05-07T00:10:00;102300.0;;;4.8;66.7
78679;BME280;67994;59.334;13.528;2023-05-07T00:11:00;102300.0;;;4.7;67.2
78679;BME280;67994;59.334;13.528;2023-05-07T00:12:00;102300.0;;;4.7;67.6
78679;BME280;67994;59.334;13.528;2023-05-07T00:13:00;102300.0;;;4.7;67.7
78679;BME280;67994;59.334;13.528;2023-05-07T00:14:00;102300.0;;;4.8;67.8
78679;BME280;67994;59.334;13.528;2023-05-07T00:15:01;102300.0;;;4.7;67.9
78679;BME280;67994;59.334;13.528;2023-05-07T00:16:01;102300.0;;;4.7;67.9
78679;BME280;67994;59.334;13.528;2023-05-07T00:17:00;102300.0;;;4.7;67.9
78679;BME280;67994;59.334;13.528;2023-05-07T00:18:00;102300.0;;;4.7;68.2
78679;BME280;67994;59.334;13.528;2023-05-07T00:19:00;102300.0;;;4.7;68.2
78679;BME280;67994;59.334;13.528;2023-05-07T00:20:00;102300.0;;;4.6;68.3
78679;BME280;67994;59.334;13.528;2023-05-07T00:21:00;102300.0;;;4.7;68.3
78679;BME280;67994;59.334;13.528;2023-05-07T00:22:00;102300.0;;;4.7;68.3
78679;BME280;67994;59.334;13.528;2023-05-07T00:23:00;102300.0;;;4.7;68.6
78679;BME280;67994;59.334;13.528;2023-05-07T00:24:00;102300.0;;;4.6;68.6
78679;BME280;67994;59.334;13.528;2023-05-07T00:25:00;102300.0;;;4.6;68.5
78679;BME280;67994;59.334;13.528;2023-05-07T00:26:00;102300.0;;;4.6;68.5
78679;BME280;67994;59.334;13.528;2023-05-07T00:27:00;102300.0;;;4.6;68.5
78679;BME280;67994;59.334;13.528;2023-05-07T00:28:00;102300.0;;;4.6;68.9
78679;BME280;67994;59.334;13.528;2023-05-07T00:29:00;102300.0;;;4.6;68.5
78679;BME280;67994;59.334;13.528;2023-05-07T00:30:00;102300.0;;;4.6;68.4
78679;BME280;67994;59.334;13.528;2023-05-07T00:31:00;102300.0;;;4.6;68.4
78679;BME280;67994;59.334;13.528;2023-05-07T00:32:00;102300.0;;;4.6;68.5
78679;BME280;67994;59.334;13.528;2023-05-07T00:33:00;102300.0;;;4.6;68.7
78679;BME280;67994;59.334;13.528;2023-05-07T00:34:00;102300.0;;;4.5;69.1
78679;BME280;67994;59.334;13.528;2023-05-07T00:35:00;102300.0;;;4.5;69.1
78679;BME280;67994;59.334;13.528;2023-05-07T00:36:00;102300.0;;;4.5;69.2
78679;BME280;67994;59.334;13.528;2023-05-07T00:37:01;102300.0;;;4.5;69.1
78679;BME280;67994;59.334;13.528;2023-05-07T00:38:00;102300.0;;;4.5;69.0
78679;BME280;67994;59.334;13.528;2023-05-07T00:39:00;102300.0;;;4.5;69.0
78679;BME280;67994;59.334;13.528;2023-05-07T00:40:00;102300.0;;;4.5;69.1
78679;BME280;67994;59.334;13.528;2023-05-07T00:41:00;102300.0;;;4.5;69.0
78679;BME280;67994;59.334;13.528;2023-05-07T00:42:00;102300.0;;;4.5;69.1
78679;BME280;67994;59.334;13.528;2023-05-07T00:43:00;102300.0;;;4.4;69.0
78679;BME280;67994;59.334;13.528;2023-05-07T00:44:00;102300.0;;;4.5;68.8
78679;BME280;67994;59.334;13.528;2023-05-07T00:45:00;102300.0;;;4.5;68.8
78679;BME280;67994;59.334;13.528;2023-05-07T00:46:00;102300.0;;;4.5;68.9
78679;BME280;67994;59.334;13.528;2023-05-07T00:47:02;102300.0;;;4.5;69.1
78679;BME280;67994;59.334;13.528;2023-05-07T00:48:01;102300.0;;;4.5;69.1
78679;BME280;67994;59.334;13.528;2023-05-07T00:49:00;102300.0;;;4.4;69.5
78679;BME280;67994;59.334;13.528;2023-05-07T00:50:00;102300.0;;;4.5;69.0
78679;BME280;67994;59.334;13.528;2023-05-07T00:51:00;102300.0;;;4.4;69.1
78679;BME280;67994;59.334;13.528;2023-05-07T00:52:01;102300.0;;;4.4;69.5
78679;BME280;67994;59.334;13.528;2023-05-07T00:53:00;102300.0;;;4.4;69.3
78679;BME280;67994;59.334;13.528;2023-05-07T00:54:02;102300.0;;;4.4;69.3
78679;BME280;67994;59.334;13.528;2023-05-07T00:55:04;102300.0;;;4.4;69.5
78679;BME280;67994;59.334;13.528;2023-05-07T00:56:00;102300.0;;;4.4;69.4
78679;BME280;67994;59.334;13.528;2023-05-07T00:57:02;102300.0;;;4.4;69.4
78679;BME280;67994;59.334;13.528;2023-05-07T00:58:00;102300.0;;;4.4;69.5
78679;BME280;67994;59.334;13.528;2023-05-07T00:59:01;102300.0;;;4.4;69.3
78679;BME280;67994;59.334;13.528;2023-05-07T01:00:01;102300.0;;;4.4;69.1
78679;BME280;67994;59.334;13.528;2023-05-07T01:01:01;102300.0;;;4.4;69.1
78679;BME280;67994;59.334;13.528;2023-05-07T01:02:00;102300.0;;;4.3;69.1
78679;BME280;67994;59.334;13.528;2023-05-07T01:03:00;102300.0;;;4.4;69.1
78679;BME280;67994;59.334;13.528;2023-05-07T01:04:00;102300.0;;;4.3;69.3
78679;BME280;67994;59.334;13.528;2023-05-07T01:05:01;102300.0;;;4.3;69.2
78679;BME280;67994;59.334;13.528;2023-05-07T01:06:01;102300.0;;;4.3;69.2
78679;BME280;67994;59.334;13.528;2023-05-07T01:07:01;102300.0;;;4.3;69.2
78679;BME280;67994;59.334;13.528;2023-05-07T01:08:01;102300.0;;;4.3;69.3
78679;BME280;67994;59.334;13.528;2023-05-07T01:09:01;102300.0;;;4.3;69.3
78679;BME280;67994;59.334;13.528;2023-05-07T01:10:02;102300.0;;;4.3;69.5
78679;BME280;67994;59.334;13.528;2023-05-07T01:11:00;102300.0;;;4.3;69.6
78679;BME280;67994;59.334;13.528;2023-05-07T01:12:00;102300.0;;;4.3;69.7
78679;BME280;67994;59.334;13.528;2023-05-07T01:13:01;102300.0;;;4.2;69.9
78679;BME280;67994;59.334;13.528;2023-05-07T01:14:01;102300.0;;;4.3;69.8
78679;BME280;67994;59.334;13.528;2023-05-07T01:15:01;102300.0;;;4.3;69.9
78679;BME280;67994;59.334;13.528;2023-05-07T01:16:00;102300.0;;;4.3;69.9
78679;BME280;67994;59.334;13.528;2023-05-07T01:17:00;102300.0;;;4.2;70.0
78679;BME280;67994;59.334;13.528;2023-05-07T01:18:00;102300.0;;;4.2;70.3
78679;BME280;67994;59.334;13.528;2023-05-07T01:19:00;102300.0;;;4.2;70.3
78679;BME280;67994;59.334;13.528;2023-05-07T01:20:00;102300.0;;;4.2;70.1
78679;BME280;67994;59.334;13.528;2023-05-07T01:21:01;102300.0;;;4.1;70.5
78679;BME280;67994;59.334;13.528;2023-05-07T01:22:02;102300.0;;;4.1;70.6
78679;BME280;67994;59.334;13.528;2023-05-07T01:23:00;102300.0;;;4.1;70.9
78679;BME280;67994;59.334;13.528;2023-05-07T01:24:00;102300.0;;;4.1;70.6
78679;BME280;67994;59.334;13.528;2023-05-07T01:25:00;102300.0;;;4.1;71.0
78679;BME280;67994;59.334;13.528;2023-05-07T01:26:00;102300.0;;;4.0;70.9
78679;BME280;67994;59.334;13.528;2023-05-07T01:27:00;102300.0;;;4.1;70.8
78679;BME280;67994;59.334;13.528;2023-05-07T01:28:00;102300.0;;;4.2;70.5
78679;BME280;67994;59.334;13.528;2023-05-07T01:29:00;102300.0;;;4.2;70.5
78679;BME280;67994;59.334;13.528;2023-05-07T01:30:00;102300.0;;;4.1;70.7
78679;BME280;67994;59.334;13.528;2023-05-07T01:31:02;102300.0;;;4.0;70.9
78679;BME280;67994;59.334;13.528;2023-05-07T01:32:01;102300.0;;;4.0;71.0
78679;BME280;67994;59.334;13.528;2023-05-07T01:33:04;102400.0;;;4.1;71.0
78679;BME280;67994;59.334;13.528;2023-05-07T01:34:03;102400.0;;;4.1;71.0
78679;BME280;67994;59.334;13.528;2023-05-07T01:35:02;102400.0;;;4.0;71.2
78679;BME280;67994;59.334;13.528;2023-05-07T01:36:01;102400.0;;;4.0;71.2
78679;BME280;67994;59.334;13.528;2023-05-07T01:37:01;102400.0;;;4.0;71.1
78679;BME280;67994;59.334;13.528;2023-05-07T01:38:00;102400.0;;;4.0;71.5
78679;BME280;67994;59.334;13.528;2023-05-07T01:39:01;102400.0;;;4.0;71.2
78679;BME280;67994;59.334;13.528;2023-05-07T01:40:01;102400.0;;;3.9;71.2
78679;BME280;67994;59.334;13.528;2023-05-07T01:41:01;102400.0;;;4.0;71.6
78679;BME280;67994;59.334;13.528;2023-05-07T01:42:01;102400.0;;;4.0;71.6
78679;BME280;67994;59.334;13.528;2023-05-07T01:43:01;102400.0;;;4.0;71.6
78679;BME280;67994;59.334;13.528;2023-05-07T01:44:01;102400.0;;;3.9;71.9
78679;BME280;67994;59.334;13.528;2023-05-07T01:45:00;102400.0;;;3.9;71.7
78679;BME280;67994;59.334;13.528;2023-05-07T01:46:01;102400.0;;;3.9;71.8
78679;BME280;67994;59.334;13.528;2023-05-07T01:47:01;102400.0;;;3.9;71.6
78679;BME280;67994;59.334;13.528;2023-05-07T01:48:01;102400.0;;;3.9;71.6
78679;BME280;67994;59.334;13.528;2023-05-07T01:49:00;102400.0;;;3.8;72.0
78679;BME280;67994;59.334;13.528;2023-05-07T01:50:00;102400.0;;;3.9;72.0
78679;BME280;67994;59.334;13.528;2023-05-07T01:51:01;102400.0;;;3.9;72.1
78679;BME280;67994;59.334;13.528;2023-05-07T01:52:01;102400.0;;;3.8;72.2
78679;BME280;67994;59.334;13.528;2023-05-07T01:53:01;102400.0;;;3.8;72.3
78679;BME280;67994;59.334;13.528;2023-05-07T01:54:00;102400.0;;;3.8;72.2
78679;BME280;67994;59.334;13.528;2023-05-07T01:55:00;102400.0;;;3.8;72.5
78679;BME280;67994;59.334;13.528;2023-05-07T01:56:00;102400.0;;;3.8;72.5
78679;BME280;67994;59.334;13.528;2023-05-07T01:57:00;102400.0;;;3.8;72.5
78679;BME280;67994;59.334;13.528;2023-05-07T01:58:00;102400.0;;;3.8;72.6
78679;BME280;67994;59.334;13.528;2023-05-07T01:59:00;102400.0;;;3.8;72.6
78679;BME280;67994;59.334;13.528;2023-05-07T02:00:00;102400.0;;;3.8;72.7
78679;BME280;67994;59.334;13.528;2023-05-07T02:01:00;102400.0;;;3.8;72.3
78679;BME280;67994;59.334;13.528;2023-05-07T02:02:00;102400.0;;;3.8;72.0
78679;BME280;67994;59.334;13.528;2023-05-07T02:03:00;102400.0;;;3.8;72.2
78679;BME280;67994;59.334;13.528;2023-05-07T02:04:00;102400.0;;;3.9;71.7
78679;BME280;67994;59.334;13.528;2023-05-07T02:05:00;102400.0;;;3.8;71.9
78679;BME280;67994;59.334;13.528;2023-05-07T02:06:00;102400.0;;;3.7;72.5
78679;BME280;67994;59.334;13.528;2023-05-07T02:07:00;102400.0;;;3.7;72.7
78679;BME280;67994;59.334;13.528;2023-05-07T02:08:00;102400.0;;;3.7;72.5
78679;BME280;67994;59.334;13.528;2023-05-07T02:09:00;102400.0;;;3.8;72.2
78679;BME280;67994;59.334;13.528;2023-05-07T02:10:00;102400.0;;;3.7;71.7
78679;BME280;67994;59.334;13.528;2023-05-07T02:11:01;102400.0;;;3.7;72.1
78679;BME280;67994;59.334;13.528;2023-05-07T02:12:00;102400.0;;;3.7;72.5
78679;BME280;67994;59.334;13.528;2023-05-07T02:13:00;102400.0;;;3.7;72.1
78679;BME280;67994;59.334;13.528;2023-05-07T02:14:00;102400.0;;;3.8;71.2
78679;BME280;67994;59.334;13.528;2023-05-07T02:15:00;102400.0;;;3.7;72.7
78679;BME280;67994;59.334;13.528;2023-05-07T02:16:00;102400.0;;;3.7;72.7
78679;BME280;67994;59.334;13.528;2023-05-07T02:17:00;102400.0;;;3.7;72.4
78679;BME280;67994;59.334;13.528;2023-05-07T02:18:02;102400.0;;;3.6;73.0
78679;BME280;67994;59.334;13.528;2023-05-07T02:19:00;102400.0;;;3.7;72.6
78679;BME280;67994;59.334;13.528;2023-05-07T02:20:00;102400.0;;;3.7;72.4
78679;BME280;67994;59.334;13.528;2023-05-07T02:21:00;102400.0;;;3.7;72.4
78679;BME280;67994;59.334;13.528;2023-05-07T02:22:00;102400.0;;;3.7;72.1
78679;BME280;67994;59.334;13.528;2023-05-07T02:23:00;102400.0;;;3.6;72.8
78679;BME280;67994;59.334;13.528;2023-05-07T02:24:00;102400.0;;;3.6;73.1
78679;BME280;67994;59.334;13.528;2023-05-07T02:25:00;102400.0;;;3.5;73.3
78679;BME280;67994;59.334;13.528;2023-05-07T02:26:00;102400.0;;;3.6;73.0
78679;BME280;67994;59.334;13.528;2023-05-07T02:27:00;102400.0;;;3.5;73.1
78679;BME280;67994;59.334;13.528;2023-05-07T02:28:00;102400.0;;;3.5;73.1
78679;BME280;67994;59.334;13.528;2023-05-07T02:29:00;102400.0;;;3.5;72.8
78679;BME280;67994;59.334;13.528;2023-05-07T02:30:00;102400.0;;;3.5;72.9
78679;BME280;67994;59.334;13.528;2023-05-07T02:31:02;102400.0;;;3.7;72.2
78679;BME280;67994;59.334;13.528;2023-05-07T02:32:00;102400.0;;;3.6;72.7
78679;BME280;67994;59.334;13.528;2023-05-07T02:33:00;102400.0;;;3.5;72.9
78679;BME280;67994;59.334;13.528;2023-05-07T02:34:00;102400.0;;;3.5;72.9
78679;BME280;67994;59.334;13.528;2023-05-07T02:35:00;102400.0;;;3.4;73.0
78679;BME280;67994;59.334;13.528;2023-05-07T02:36:06;102400.0;;;3.5;72.8
78679;BME280;67994;59.334;13.528;2023-05-07T02:37:00;102400.0;;;3.5;72.7
78679;BME280;67994;59.334;13.528;2023-05-07T02:38:00;102400.0;;;3.4;72.9
78679;BME280;67994;59.334;13.528;2023-05-07T02:39:00;102400.0;;;3.4;72.7
78679;BME280;67994;59.334;13.528;2023-05-07T02:40:00;102400.0;;;3.4;72.6
78679;BME280;67994;59.334;13.528;2023-05-07T02:41:00;102400.0;;;3.5;72.2
78679;BME280;67994;59.334;13.528;2023-05-07T02:42:00;102400.0;;;3.4;72.5
78679;BME280;67994;59.334;13.528;2023-05-07T02:43:00;102400.0;;;3.4;73.0
78679;BME280;67994;59.334;13.528;2023-05-07T02:44:00;102400.0;;;3.5;72.5
78679;BME280;67994;59.334;13.528;2023-05-07T02:45:00;102400.0;;;3.4;72.6
78679;BME280;67994;59.334;13.528;2023-05-07T02:46:02;102400.0;;;3.4;72.6
78679;BME280;67994;59.334;13.528;2023-05-07T02:47:00;102400.0;;;3.4;73.1
78679;BME280;67994;59.334;13.528;2023-05-07T02:48:00;102400.0;;;3.3;73.5
78679;BME280;67994;59.334;13.528;2023-05-07T02:49:00;102400.0;;;3.3;72.9
78679;BME280;67994;59.334;13.528;2023-05-07T02:50:00;102400.0;;;3.3;72.9
78679;BME280;67994;59.334;13.528;2023-05-07T02:51:01;102400.0;;;3.3;73.0
78679;BME280;67994;59.334;13.528;2023-05-07T02:52:00;102400.0;;;3.3;73.1
78679;BME280;67994;59.334;13.528;2023-05-07T02:53:00;102400.0;;;3.3;73.2
78679;BME280;67994;59.334;13.528;2023-05-07T02:54:00;102400.0;;;3.4;72.9
78679;BME280;67994;59.334;13.528;2023-05-07T02:55:00;102400.0;;;3.3;73.2
78679;BME280;67994;59.334;13.528;2023-05-07T02:56:01;102400.0;;;3.4;73.0
78679;BME280;67994;59.334;13.528;2023-05-07T02:57:00;102400.0;;;3.4;72.9
78679;BME280;67994;59.334;13.528;2023-05-07T02:58:00;102400.0;;;3.3;73.3
78679;BME280;67994;59.334;13.528;2023-05-07T02:59:00;102400.0;;;3.4;72.9
78679;BME280;67994;59.334;13.528;2023-05-07T03:00:10;102400.0;;;3.3;73.0
78679;BME280;67994;59.334;13.528;2023-05-07T03:01:00;102400.0;;;3.3;73.0
78679;BME280;67994;59.334;13.528;2023-05-07T03:02:00;102400.0;;;3.5;72.1
78679;BME280;67994;59.334;13.528;2023-05-07T03:03:00;102400.0;;;3.3;73.0
78679;BME280;67994;59.334;13.528;2023-05-07T03:04:00;102400.0;;;3.3;73.3
78679;BME280;67994;59.334;13.528;2023-05-07T03:05:00;102400.0;;;3.4;73.1
78679;BME280;67994;59.334;13.528;2023-05-07T03:06:01;102400.0;;;3.3;73.2
78679;BME280;67994;59.334;13.528;2023-05-07T03:07:00;102400.0;;;3.4;73.4
78679;BME280;67994;59.334;13.528;2023-05-07T03:08:00;102400.0;;;3.5;72.9
78679;BME280;67994;59.334;13.528;2023-05-07T03:09:00;102400.0;;;3.5;73.0
78679;BME280;67994;59.334;13.528;2023-05-07T03:10:00;102400.0;;;3.5;73.0
78679;BME280;67994;59.334;13.528;2023-05-07T03:11:00;102400.0;;;3.5;73.0
78679;BME280;67994;59.334;13.528;2023-05-07T03:12:00;102400.0;;;3.6;72.6
78679;BME280;67994;59.334;13.528;2023-05-07T03:13:00;102400.0;;;3.6;72.7
78679;BME280;67994;59.334;13.528;2023-05-07T03:14:00;102400.0;;;3.6;72.6
78679;BME280;67994;59.334;13.528;2023-05-07T03:15:00;102400.0;;;3.5;73.2
78679;BME280;67994;59.334;13.528;2023-05-07T03:16:00;102400.0;;;3.5;73.9
78679;BME280;67994;59.334;13.528;2023-05-07T03:17:00;102400.0;;;3.6;73.4
78679;BME280;67994;59.334;13.528;2023-05-07T03:18:00;102400.0;;;3.8;72.7
78679;BME280;67994;59.334;13.528;2023-05-07T03:19:00;102400.0;;;4.1;71.6
78679;BME280;67994;59.334;13.528;2023-05-07T03:20:00;102400.0;;;4.1;72.1
78679;BME280;67994;59.334;13.528;2023-05-07T03:21:00;102400.0;;;4.1;72.3
78679;BME280;67994;59.334;13.528;2023-05-07T03:22:00;102400.0;;;4.3;71.9
78679;BME280;67994;59.334;13.528;2023-05-07T03:23:00;102400.0;;;4.3;71.9
78679;BME280;67994;59.334;13.528;2023-05-07T03:24:00;102400.0;;;4.7;70.4
78679;BME280;67994;59.334;13.528;2023-05-07T03:25:00;102400.0;;;4.8;70.4
78679;BME280;67994;59.334;13.528;2023-05-07T03:26:00;102400.0;;;4.8;69.9
78679;BME280;67994;59.334;13.528;2023-05-07T03:27:00;102400.0;;;4.9;69.8
78679;BME280;67994;59.334;13.528;2023-05-07T03:28:00;102400.0;;;4.9;70.0
78679;BME280;67994;59.334;13.528;2023-05-07T03:29:00;102400.0;;;5.1;69.0
78679;BME280;67994;59.334;13.528;2023-05-07T03:30:00;102400.0;;;4.9;69.8
78679;BME280;67994;59.334;13.528;2023-05-07T03:31:00;102400.0;;;4.9;69.9
78679;BME280;67994;59.334;13.528;2023-05-07T03:32:00;102400.0;;;5.0;69.4
78679;BME280;67994;59.334;13.528;2023-05-07T03:33:00;102400.0;;;5.0;69.4
78679;BME280;67994;59.334;13.528;2023-05-07T03:34:00;102400.0;;;5.0;69.8
78679;BME280;67994;59.334;13.528;2023-05-07T03:35:00;102400.0;;;5.2;69.3
78679;BME280;67994;59.334;13.528;2023-05-07T03:36:01;102400.0;;;5.3;69.1
78679;BME280;67994;59.334;13.528;2023-05-07T03:37:00;102400.0;;;5.2;69.4
78679;BME280;67994;59.334;13.528;2023-05-07T03:38:01;102400.0;;;5.6;68.6
78679;BME280;67994;59.334;13.528;2023-05-07T03:39:00;102400.0;;;5.7;68.3
78679;BME280;67994;59.334;13.528;2023-05-07T03:40:00;102400.0;;;5.9;67.8
78679;BME280;67994;59.334;13.528;2023-05-07T03:41:00;102400.0;;;6.3;66.7
78679;BME280;67994;59.334;13.528;2023-05-07T03:42:00;102400.0;;;6.4;66.4
78679;BME280;67994;59.334;13.528;2023-05-07T03:43:00;102400.0;;;6.4;66.5
78679;BME280;67994;59.334;13.528;2023-05-07T03:44:00;102400.0;;;6.7;65.5
78679;BME280;67994;59.334;13.528;2023-05-07T03:45:00;102400.0;;;6.4;66.2
78679;BME280;67994;59.334;13.528;2023-05-07T03:46:00;102400.0;;;6.6;65.7
78679;BME280;67994;59.334;13.528;2023-05-07T03:47:00;102400.0;;;6.8;65.5
78679;BME280;67994;59.334;13.528;2023-05-07T03:48:00;102400.0;;;7.2;64.2
78679;BME280;67994;59.334;13.528;2023-05-07T03:49:00;102400.0;;;7.3;63.9
78679;BME280;67994;59.334;13.528;2023-05-07T03:50:00;102400.0;;;7.4;63.9
78679;BME280;67994;59.334;13.528;2023-05-07T03:51:00;102400.0;;;7.3;64.1
78679;BME280;67994;59.334;13.528;2023-05-07T03:52:00;102400.0;;;7.4;64.1
78679;BME280;67994;59.334;13.528;2023-05-07T03:53:00;102400.0;;;7.6;63.4
78679;BME280;67994;59.334;13.528;2023-05-07T03:54:00;102400.0;;;7.8;63.1
78679;BME280;67994;59.334;13.528;2023-05-07T03:55:00;102400.0;;;8.3;62.0
78679;BME280;67994;59.334;13.528;2023-05-07T03:56:00;102400.0;;;8.4;61.5
78679;BME280;67994;59.334;13.528;2023-05-07T03:57:00;102400.0;;;8.2;61.5
78679;BME280;67994;59.334;13.528;2023-05-07T03:58:00;102400.0;;;8.3;61.3
78679;BME280;67994;59.334;13.528;2023-05-07T03:59:00;102400.0;;;8.3;61.3
78679;BME280;67994;59.334;13.528;2023-05-07T04:00:00;102400.0;;;8.1;61.6
78679;BME280;67994;59.334;13.528;2023-05-07T04:01:00;102400.0;;;8.4;61.3
78679;BME280;67994;59.334;13.528;2023-05-07T04:02:00;102400.0;;;8.5;60.5
78679;BME280;67994;59.334;13.528;2023-05-07T04:03:00;102400.0;;;8.0;61.7
78679;BME280;67994;59.334;13.528;2023-05-07T04:04:00;102400.0;;;7.8;62.2
78679;BME280;67994;59.334;13.528;2023-05-07T04:05:00;102400.0;;;8.0;62.0
78679;BME280;67994;59.334;13.528;2023-05-07T04:06:00;102400.0;;;8.0;61.7
78679;BME280;67994;59.334;13.528;2023-05-07T04:07:00;102400.0;;;8.1;61.8
78679;BME280;67994;59.334;13.528;2023-05-07T04:08:01;102400.0;;;8.0;61.7
78679;BME280;67994;59.334;13.528;2023-05-07T04:09:00;102400.0;;;8.0;61.9
78679;BME280;67994;59.334;13.528;2023-05-07T04:10:00;102400.0;;;8.1;61.7
78679;BME280;67994;59.334;13.528;2023-05-07T04:11:01;102400.0;;;8.4;60.6
78679;BME280;67994;59.334;13.528;2023-05-07T04:12:00;102400.0;;;8.6;60.6
78679;BME280;67994;59.334;13.528;2023-05-07T04:13:00;102400.0;;;8.7;60.2
78679;BME280;67994;59.334;13.528;2023-05-07T04:14:00;102400.0;;;8.5;60.7
78679;BME280;67994;59.334;13.528;2023-05-07T04:15:00;102400.0;;;8.3;60.7
78679;BME280;67994;59.334;13.528;2023-05-07T04:16:01;102400.0;;;8.3;60.7
78679;BME280;67994;59.334;13.528;2023-05-07T04:17:00;102400.0;;;8.4;60.6
78679;BME280;67994;59.334;13.528;2023-05-07T04:18:00;102400.0;;;8.0;61.2
78679;BME280;67994;59.334;13.528;2023-05-07T04:19:00;102400.0;;;8.2;60.9
78679;BME280;67994;59.334;13.528;2023-05-07T04:20:00;102400.0;;;8.1;60.9
78679;BME280;67994;59.334;13.528;2023-05-07T04:21:00;102400.0;;;7.9;61.7
78679;BME280;67994;59.334;13.528;2023-05-07T04:22:00;102400.0;;;7.9;61.7
78679;BME280;67994;59.334;13.528;2023-05-07T04:23:00;102400.0;;;8.1;61.8
78679;BME280;67994;59.334;13.528;2023-05-07T04:24:02;102400.0;;;8.1;61.4
78679;BME280;67994;59.334;13.528;2023-05-07T04:25:00;102400.0;;;8.1;60.2
78679;BME280;67994;59.334;13.528;2023-05-07T04:26:00;102400.0;;;8.3;61.1
78679;BME280;67994;59.334;13.528;2023-05-07T04:27:00;102400.0;;;8.5;60.3
78679;BME280;67994;59.334;13.528;2023-05-07T04:28:00;102400.0;;;8.6;60.3
78679;BME280;67994;59.334;13.528;2023-05-07T04:29:00;102400.0;;;8.5;60.4
78679;BME280;67994;59.334;13.528;2023-05-07T04:30:00;102400.0;;;8.7;59.7
78679;BME280;67994;59.334;13.528;2023-05-07T04:31:00;102400.0;;;8.9;59.6
78679;BME280;67994;59.334;13.528;2023-05-07T04:32:00;102400.0;;;9.2;58.8
78679;BME280;67994;59.334;13.528;2023-05-07T04:33:00;102400.0;;;8.9;59.2
78679;BME280;67994;59.334;13.528;2023-05-07T04:34:00;102400.0;;;9.1;58.5
78679;BME280;67994;59.334;13.528;2023-05-07T04:35:00;102400.0;;;9.0;59.2
78679;BME280;67994;59.334;13.528;2023-05-07T04:36:02;102400.0;;;9.2;58.5
78679;BME280;67994;59.334;13.528;2023-05-07T04:37:00;102400.0;;;9.2;59.3
78679;BME280;67994;59.334;13.528;2023-05-07T04:38:00;102400.0;;;9.2;59.5
78679;BME280;67994;59.334;13.528;2023-05-07T04:39:02;102400.0;;;9.1;59.1
78679;BME280;67994;59.334;13.528;2023-05-07T04:40:00;102400.0;;;9.0;59.0
78679;BME280;67994;59.334;13.528;2023-05-07T04:41:02;102400.0;;;9.2;58.7
78679;BME280;67994;59.334;13.528;2023-05-07T04:42:00;102400.0;;;9.1;59.3
78679;BME280;67994;59.334;13.528;2023-05-07T04:43:00;102400.0;;;8.8;60.0
78679;BME280;67994;59.334;13.528;2023-05-07T04:44:00;102400.0;;;8.9;59.2
78679;BME280;67994;59.334;13.528;2023-05-07T04:45:01;102400.0;;;8.6;59.4
78679;BME280;67994;59.334;13.528;2023-05-07T04:46:00;102400.0;;;8.4;59.4
78679;BME280;67994;59.334;13.528;2023-05-07T04:47:00;102400.0;;;8.4;61.4
78679;BME280;67994;59.334;13.528;2023-05-07T04:48:00;102400.0;;;8.5;60.9
78679;BME280;67994;59.334;13.528;2023-05-07T04:49:00;102400.0;;;8.4;61.5
78679;BME280;67994;59.334;13.528;2023-05-07T04:50:00;102400.0;;;8.6;60.5
78679;BME280;67994;59.334;13.528;2023-05-07T04:51:00;102400.0;;;8.4;60.9
78679;BME280;67994;59.334;13.528;2023-05-07T04:52:00;102400.0;;;8.7;60.8
78679;BME280;67994;59.334;13.528;2023-05-07T04:53:00;102400.0;;;8.5;60.3
78679;BME280;67994;59.334;13.528;2023-05-07T04:54:00;102400.0;;;8.5;60.9
78679;BME280;67994;59.334;13.528;2023-05-07T04:55:00;102400.0;;;8.6;60.6
78679;BME280;67994;59.334;13.528;2023-05-07T04:56:00;102400.0;;;8.4;61.3
78679;BME280;67994;59.334;13.528;2023-05-07T04:57:00;102400.0;;;8.7;60.4
78679;BME280;67994;59.334;13.528;2023-05-07T04:58:00;102400.0;;;8.6;60.4
78679;BME280;67994;59.334;13.528;2023-05-07T04:59:00;102400.0;;;8.3;61.5
78679;BME280;67994;59.334;13.528;2023-05-07T05:00:00;102400.0;;;8.3;61.6
78679;BME280;67994;59.334;13.528;2023-05-07T05:01:00;102400.0;;;8.7;60.7
78679;BME280;67994;59.334;13.528;2023-05-07T05:02:00;102400.0;;;8.6;60.4
78679;BME280;67994;59.334;13.528;2023-05-07T05:03:00;102400.0;;;8.3;59.8
78679;BME280;67994;59.334;13.528;2023-05-07T05:04:00;102400.0;;;8.4;60.3
78679;BME280;67994;59.334;13.528;2023-05-07T05:05:00;102400.0;;;8.5;60.1
78679;BME280;67994;59.334;13.528;2023-05-07T05:06:00;102400.0;;;8.2;60.7
78679;BME280;67994;59.334;13.528;2023-05-07T05:07:00;102400.0;;;8.4;59.6
78679;BME280;67994;59.334;13.528;2023-05-07T05:08:00;102400.0;;;8.5;60.2
78679;BME280;67994;59.334;13.528;2023-05-07T05:09:00;102400.0;;;8.6;59.4
78679;BME280;67994;59.334;13.528;2023-05-07T05:10:01;102400.0;;;8.5;59.8
78679;BME280;67994;59.334;13.528;2023-05-07T05:11:01;102400.0;;;8.2;59.2
78679;BME280;67994;59.334;13.528;2023-05-07T05:12:00;102400.0;;;8.6;59.1
78679;BME280;67994;59.334;13.528;2023-05-07T05:13:00;102400.0;;;8.4;58.7
78679;BME280;67994;59.334;13.528;2023-05-07T05:14:00;102400.0;;;8.1;59.0
78679;BME280;67994;59.334;13.528;2023-05-07T05:15:00;102400.0;;;8.1;59.0
78679;BME280;67994;59.334;13.528;2023-05-07T05:16:00;102400.0;;;8.0;58.8
78679;BME280;67994;59.334;13.528;2023-05-07T05:17:00;102400.0;;;8.1;59.0
78679;BME280;67994;59.334;13.528;2023-05-07T05:18:00;102400.0;;;8.2;58.2
78679;BME280;67994;59.334;13.528;2023-05-07T05:19:01;102400.0;;;8.4;58.1
78679;BME280;67994;59.334;13.528;2023-05-07T05:20:00;102400.0;;;8.2;57.9
78679;BME280;67994;59.334;13.528;2023-05-07T05:21:00;102400.0;;;8.6;57.5
78679;BME280;67994;59.334;13.528;2023-05-07T05:22:00;102400.0;;;8.2;57.2
78679;BME280;67994;59.334;13.528;2023-05-07T05:23:00;102400.0;;;8.4;56.9
78679;BME280;67994;59.334;13.528;2023-05-07T05:24:00;102400.0;;;8.3;56.9
78679;BME280;67994;59.334;13.528;2023-05-07T05:25:00;102400.0;;;8.6;57.6
78679;BME280;67994;59.334;13.528;2023-05-07T05:26:00;102400.0;;;8.8;57.1